createdAt,value
2019-06-20T00:01:34.392Z,16.16
2019-06-20T00:04:02.871Z,16.04
2019-06-20T00:06:31.267Z,15.99
2019-06-20T00:08:59.659Z,15.92
2019-06-20T00:11:28.254Z,15.87
2019-06-20T00:13:56.658Z,15.84
2019-06-20T00:16:25.042Z,15.84
2019-06-20T00:18:53.442Z,15.90
2019-06-20T00:21:22.244Z,15.97
2019-06-20T00:23:50.653Z,16.06
2019-06-20T00:26:19.054Z,16.06
2019-06-20T00:28:47.488Z,16.03
2019-06-20T00:31:15.888Z,15.97
2019-06-20T00:33:44.291Z,15.85
2019-06-20T00:36:12.703Z,15.71
2019-06-20T00:38:41.099Z,15.63
2019-06-20T00:41:09.580Z,15.56
2019-06-20T00:43:37.998Z,15.53
2019-06-20T00:46:06.381Z,15.48
2019-06-20T00:48:34.822Z,15.41
2019-06-20T00:51:03.219Z,15.35
2019-06-20T00:53:31.631Z,15.27
2019-06-20T00:56:00.034Z,15.27
2019-06-20T00:58:28.426Z,15.28
2019-06-20T01:00:57.108Z,15.30
2019-06-20T01:03:25.492Z,15.33
2019-06-20T01:05:53.908Z,15.39
2019-06-20T01:08:22.313Z,15.41
2019-06-20T01:10:51.246Z,15.41
2019-06-20T01:13:32.507Z,15.41
2019-06-20T01:15:49.718Z,15.44
2019-06-20T01:18:18.120Z,15.42
2019-06-20T01:20:46.909Z,15.34
2019-06-20T01:23:15.339Z,15.30
2019-06-20T01:25:44.369Z,15.25
2019-06-20T01:28:12.760Z,15.17
2019-06-20T01:30:41.403Z,15.03
2019-06-20T01:33:09.864Z,14.90
2019-06-20T01:35:38.281Z,14.79
2019-06-20T01:38:06.746Z,14.75
2019-06-20T01:40:35.144Z,14.79
2019-06-20T01:43:03.901Z,14.81
2019-06-20T01:45:32.311Z,14.82
2019-06-20T01:48:00.702Z,14.82
2019-06-20T01:50:29.104Z,14.81
2019-06-20T01:52:57.504Z,14.80
2019-06-20T01:55:26.231Z,14.80
2019-06-20T01:57:54.626Z,14.82
2019-06-20T02:00:47.189Z,14.87
2019-06-20T02:03:16.324Z,14.90
2019-06-20T02:05:45.055Z,14.94
2019-06-20T02:08:13.556Z,14.96
2019-06-20T02:10:41.956Z,14.95
2019-06-20T02:13:10.637Z,14.90
2019-06-20T02:15:39.056Z,14.85
2019-06-20T02:18:07.431Z,14.82
2019-06-20T02:20:39.117Z,14.83
2019-06-20T02:23:08.083Z,14.89
2019-06-20T02:25:36.733Z,14.98
2019-06-20T02:28:05.592Z,15.08
2019-06-20T02:30:34.093Z,15.21
2019-06-20T02:33:03.068Z,15.30
2019-06-20T02:35:31.463Z,15.34
2019-06-20T02:37:59.915Z,15.32
2019-06-20T02:40:28.305Z,15.29
2019-06-20T02:42:56.700Z,15.29
2019-06-20T02:45:25.169Z,15.33
2019-06-20T02:47:53.570Z,15.29
2019-06-20T02:50:22.148Z,15.20
2019-06-20T02:52:50.545Z,15.08
2019-06-20T02:55:19.461Z,14.99
2019-06-20T02:57:47.823Z,14.90
2019-06-20T03:00:18.093Z,14.86
2019-06-20T03:02:46.484Z,14.81
2019-06-20T03:05:15.133Z,14.78
2019-06-20T03:07:43.525Z,14.78
2019-06-20T03:10:12.159Z,14.76
2019-06-20T03:12:40.559Z,14.75
2019-06-20T03:15:09.222Z,14.78
2019-06-20T03:17:37.629Z,14.80
2019-06-20T03:20:06.318Z,14.81
2019-06-20T03:22:35.037Z,14.75
2019-06-20T03:25:03.824Z,14.73
2019-06-20T03:27:32.728Z,14.70
2019-06-20T03:30:01.154Z,14.64
2019-06-20T03:32:29.559Z,14.59
2019-06-20T03:34:57.984Z,14.53
2019-06-20T03:37:26.891Z,14.49
2019-06-20T03:39:55.262Z,14.48
2019-06-20T03:42:23.651Z,14.47
2019-06-20T03:45:01.607Z,14.46
2019-06-20T03:47:22.185Z,14.43
2019-06-20T03:49:50.832Z,14.44
2019-06-20T03:52:19.225Z,14.45
2019-06-20T03:54:47.621Z,14.48
2019-06-20T03:57:16.015Z,14.57
2019-06-20T03:59:44.411Z,14.63
2019-06-20T04:02:12.811Z,14.67
2019-06-20T04:04:41.343Z,14.69
2019-06-20T04:07:09.846Z,14.72
2019-06-20T04:09:38.250Z,14.79
2019-06-20T04:12:06.999Z,14.90
2019-06-20T04:14:35.463Z,14.96
2019-06-20T04:17:03.876Z,14.99
2019-06-20T04:19:32.274Z,14.97
2019-06-20T04:22:00.670Z,14.96
2019-06-20T04:24:29.087Z,14.96
2019-06-20T04:26:57.529Z,15.08
2019-06-20T04:29:25.915Z,15.18
2019-06-20T04:31:54.310Z,15.31
2019-06-20T04:34:22.709Z,15.39
2019-06-20T04:36:51.100Z,15.48
2019-06-20T04:39:19.887Z,15.62
2019-06-20T04:41:48.295Z,15.68
2019-06-20T04:44:16.700Z,15.67
2019-06-20T04:46:55.955Z,15.71
2019-06-20T04:49:24.350Z,15.76
2019-06-20T04:51:52.744Z,15.85
2019-06-20T04:54:21.412Z,15.92
2019-06-20T04:56:50.183Z,15.97
2019-06-20T04:59:18.619Z,15.96
2019-06-20T05:01:47.013Z,15.94
2019-06-20T05:04:15.409Z,15.97
2019-06-20T05:06:46.866Z,16.03
2019-06-20T05:09:15.257Z,16.09
2019-06-20T05:11:43.678Z,16.15
2019-06-20T05:14:12.071Z,16.22
2019-06-20T05:16:40.457Z,16.26
2019-06-20T05:19:08.855Z,16.31
2019-06-20T05:21:37.251Z,16.35
2019-06-20T05:24:05.749Z,16.40
2019-06-20T05:26:34.157Z,16.51
2019-06-20T05:29:05.376Z,16.59
2019-06-20T05:31:32.978Z,16.65
2019-06-20T05:34:01.366Z,16.71
2019-06-20T05:36:29.866Z,16.86
2019-06-20T05:38:58.259Z,16.95
2019-06-20T05:41:26.661Z,17.06
2019-06-20T05:43:55.060Z,17.17
2019-06-20T05:46:23.462Z,17.25
2019-06-20T05:48:51.873Z,17.31
2019-06-20T05:51:20.281Z,17.44
2019-06-20T05:53:48.660Z,17.53
2019-06-20T05:56:17.070Z,17.63
2019-06-20T05:58:46.024Z,17.71
2019-06-20T06:01:14.447Z,17.92
2019-06-20T06:03:44.995Z,18.25
2019-06-20T06:06:13.729Z,18.64
2019-06-20T06:08:42.132Z,18.96
2019-06-20T06:11:10.536Z,19.19
2019-06-20T06:13:39.285Z,19.17
2019-06-20T06:16:07.680Z,19.24
2019-06-20T06:18:36.154Z,19.25
2019-06-20T06:21:05.703Z,19.19
2019-06-20T06:23:34.089Z,19.09
2019-06-20T06:26:02.499Z,18.94
2019-06-20T06:28:30.887Z,18.73
2019-06-20T06:30:59.348Z,18.66
2019-06-20T06:33:27.754Z,18.69
2019-06-20T06:35:56.164Z,18.70
2019-06-20T06:38:24.611Z,18.69
2019-06-20T06:40:52.979Z,18.66
2019-06-20T06:43:21.454Z,18.69
2019-06-20T06:45:50.239Z,18.69
2019-06-20T06:48:18.708Z,18.64
2019-06-20T06:50:47.123Z,18.70
2019-06-20T06:53:15.518Z,18.72
2019-06-20T06:55:43.913Z,18.71
2019-06-20T06:58:12.667Z,18.70
2019-06-20T07:00:41.083Z,18.71
2019-06-20T07:03:09.840Z,18.65
2019-06-20T07:05:38.273Z,18.71
2019-06-20T07:08:06.646Z,18.79
2019-06-20T07:10:35.040Z,18.77
2019-06-20T07:13:03.482Z,18.77
2019-06-20T07:15:32.046Z,18.85
2019-06-20T07:18:00.442Z,18.95
2019-06-20T07:20:28.844Z,19.01
2019-06-20T07:22:57.248Z,19.05
2019-06-20T07:25:25.654Z,19.00
2019-06-20T07:27:54.601Z,18.90
2019-06-20T07:30:23.395Z,19.03
2019-06-20T07:32:51.872Z,19.13
2019-06-20T07:35:20.448Z,19.18
2019-06-20T07:37:48.822Z,19.20
2019-06-20T07:40:17.524Z,19.24
2019-06-20T07:42:46.213Z,19.41
2019-06-20T07:45:15.173Z,19.49
2019-06-20T07:47:43.591Z,19.45
2019-06-20T07:50:12.311Z,19.59
2019-06-20T07:52:40.712Z,19.66
2019-06-20T07:55:09.578Z,19.70
2019-06-20T07:57:37.983Z,19.77
2019-06-20T08:00:07.908Z,19.92
2019-06-20T08:02:36.361Z,20.11
2019-06-20T08:05:07.285Z,20.20
2019-06-20T08:07:35.754Z,20.35
2019-06-20T08:10:12.958Z,20.39
2019-06-20T08:12:41.376Z,20.24
2019-06-20T08:15:15.461Z,20.12
2019-06-20T08:17:40.847Z,19.99
2019-06-20T08:20:10.978Z,19.96
2019-06-20T08:22:39.852Z,19.76
2019-06-20T08:25:10.971Z,19.67
2019-06-20T08:27:52.768Z,19.73
2019-06-20T08:30:24.645Z,19.90
2019-06-20T08:32:53.734Z,19.95
2019-06-20T08:35:24.176Z,20.23
2019-06-20T08:37:53.904Z,20.61
2019-06-20T08:40:23.724Z,20.71
2019-06-20T08:42:52.454Z,20.71
2019-06-20T08:45:21.558Z,20.85
2019-06-20T08:47:50.069Z,20.81
2019-06-20T08:50:19.091Z,21.06
2019-06-20T08:52:47.476Z,21.21
2019-06-20T08:55:17.036Z,21.21
2019-06-20T08:57:45.511Z,21.31
2019-06-20T09:00:15.800Z,21.65
2019-06-20T09:02:44.203Z,22.07
2019-06-20T09:05:13.739Z,22.25
2019-06-20T09:07:42.567Z,22.21
2019-06-20T09:10:12.516Z,22.14
2019-06-20T09:12:41.001Z,22.08
2019-06-20T09:15:10.110Z,22.24
2019-06-20T09:17:38.863Z,22.25
2019-06-20T09:20:10.323Z,22.23
2019-06-20T09:22:38.737Z,22.17
2019-06-20T09:25:07.871Z,22.05
2019-06-20T09:27:36.912Z,22.02
2019-06-20T09:30:09.823Z,21.97
2019-06-20T09:32:38.557Z,22.00
2019-06-20T09:35:10.607Z,22.08
2019-06-20T09:37:39.173Z,22.30
2019-06-20T09:40:08.424Z,22.49
2019-06-20T09:42:37.348Z,22.67
2019-06-20T09:45:11.182Z,22.69
2019-06-20T09:47:39.861Z,22.73
2019-06-20T09:50:12.801Z,22.94
2019-06-20T09:52:41.429Z,23.20
2019-06-20T09:55:10.760Z,23.26
2019-06-20T09:57:39.284Z,23.15
2019-06-20T10:00:13.481Z,23.28
2019-06-20T10:02:41.936Z,23.18
2019-06-20T10:05:11.075Z,23.31
2019-06-20T10:07:39.640Z,23.68
2019-06-20T10:10:12.655Z,23.89
2019-06-20T10:12:41.186Z,23.82
2019-06-20T10:15:22.201Z,24.04
2019-06-20T10:17:51.509Z,23.85
2019-06-20T10:20:20.843Z,23.48
2019-06-20T10:22:49.276Z,23.48
2019-06-20T10:25:17.901Z,23.44
2019-06-20T10:27:47.912Z,23.63
2019-06-20T10:30:17.713Z,24.01
2019-06-20T10:32:46.764Z,24.22
2019-06-20T10:35:15.420Z,23.92
2019-06-20T10:37:45.566Z,23.99
2019-06-20T10:40:15.525Z,23.58
2019-06-20T10:42:44.982Z,23.15
2019-06-20T10:45:15.376Z,22.76
2019-06-20T10:47:45.395Z,22.36
2019-06-20T10:50:15.103Z,22.07
2019-06-20T10:52:43.673Z,21.64
2019-06-20T10:55:12.719Z,21.15
2019-06-20T10:57:41.856Z,20.88
2019-06-20T11:00:13.181Z,20.69
2019-06-20T11:02:43.311Z,20.56
2019-06-20T11:05:12.174Z,20.61
2019-06-20T11:07:42.072Z,20.66
2019-06-20T11:10:12.648Z,20.86
2019-06-20T11:12:47.918Z,21.00
2019-06-20T11:15:11.902Z,21.29
2019-06-20T11:17:41.896Z,21.55
2019-06-20T11:20:12.494Z,21.61
2019-06-20T11:22:41.612Z,21.41
2019-06-20T11:25:10.758Z,21.42
2019-06-20T11:27:40.518Z,21.63
2019-06-20T11:30:14.768Z,21.79
2019-06-20T11:32:43.519Z,21.66
2019-06-20T11:35:12.378Z,21.49
2019-06-20T11:37:42.266Z,21.48
2019-06-20T11:40:11.305Z,21.51
2019-06-20T11:42:40.021Z,21.70
2019-06-20T11:45:09.398Z,21.85
2019-06-20T11:47:38.284Z,21.98
2019-06-20T11:50:07.657Z,22.09
2019-06-20T11:52:41.006Z,22.20
2019-06-20T11:55:07.467Z,22.31
2019-06-20T11:57:35.864Z,22.33
2019-06-20T12:00:06.467Z,22.29
2019-06-20T12:02:34.844Z,22.39
2019-06-20T12:05:04.708Z,22.59
2019-06-20T12:07:33.123Z,22.78
2019-06-20T12:10:01.517Z,22.92
2019-06-20T12:12:29.911Z,23.02
2019-06-20T12:14:58.310Z,23.22
2019-06-20T12:17:27.086Z,23.52
2019-06-20T12:19:55.516Z,23.62
2019-06-20T12:22:24.257Z,23.97
2019-06-20T12:24:52.656Z,24.19
2019-06-20T12:27:21.049Z,24.31
2019-06-20T12:29:49.451Z,24.20
2019-06-20T12:32:19.518Z,24.08
2019-06-20T12:34:49.023Z,23.76
2019-06-20T12:37:17.503Z,23.04
2019-06-20T12:39:46.362Z,21.62
2019-06-20T12:42:14.838Z,20.79
2019-06-20T12:44:44.176Z,20.23
2019-06-20T12:47:12.751Z,19.90
2019-06-20T12:49:41.790Z,19.69
2019-06-20T12:52:10.270Z,19.79
2019-06-20T12:54:40.970Z,19.88
2019-06-20T12:57:08.816Z,19.93
2019-06-20T12:59:38.052Z,19.79
2019-06-20T13:02:08.483Z,19.69
2019-06-20T13:04:38.220Z,19.68
2019-06-20T13:07:07.188Z,19.62
2019-06-20T13:09:36.052Z,19.60
2019-06-20T13:12:04.443Z,19.59
2019-06-20T13:14:32.839Z,19.70
2019-06-20T13:17:01.241Z,19.79
2019-06-20T13:19:29.646Z,19.89
2019-06-20T13:21:58.057Z,20.02
2019-06-20T13:24:26.458Z,20.09
2019-06-20T13:26:54.862Z,20.11
2019-06-20T13:29:27.719Z,20.13
2019-06-20T13:32:03.891Z,20.15
2019-06-20T13:34:26.270Z,20.13
2019-06-20T13:36:54.672Z,20.10
2019-06-20T13:39:23.090Z,20.22
2019-06-20T13:41:51.480Z,20.35
2019-06-20T13:44:21.663Z,20.64
2019-06-20T13:46:50.302Z,20.91
2019-06-20T13:49:18.764Z,21.00
2019-06-20T13:51:47.711Z,21.06
2019-06-20T13:54:16.173Z,21.29
2019-06-20T13:56:45.349Z,21.47
2019-06-20T13:59:14.105Z,21.63
2019-06-20T14:01:44.074Z,21.72
2019-06-20T14:04:17.368Z,21.97
2019-06-20T14:06:47.278Z,21.97
2019-06-20T14:09:15.762Z,22.05
2019-06-20T14:11:45.376Z,22.08
2019-06-20T14:14:13.883Z,22.07
2019-06-20T14:16:43.030Z,22.04
2019-06-20T14:19:11.461Z,22.08
2019-06-20T14:21:40.199Z,22.17
2019-06-20T14:24:08.617Z,22.10
2019-06-20T14:26:37.013Z,22.22
2019-06-20T14:29:05.482Z,22.54
2019-06-20T14:31:33.893Z,22.67
2019-06-20T14:34:02.378Z,22.98
2019-06-20T14:36:30.809Z,23.13
2019-06-20T14:38:59.194Z,23.29
2019-06-20T14:41:27.586Z,23.72
2019-06-20T14:43:55.987Z,23.91
2019-06-20T14:46:24.388Z,23.77
2019-06-20T14:48:52.785Z,23.46
2019-06-20T14:51:21.190Z,23.31
2019-06-20T14:53:49.580Z,23.18
2019-06-20T14:56:18.350Z,23.04
2019-06-20T14:58:46.876Z,23.06
2019-06-20T15:01:15.294Z,23.06
2019-06-20T15:03:45.637Z,22.78
2019-06-20T15:06:13.811Z,22.44
2019-06-20T15:08:42.214Z,22.08
2019-06-20T15:11:12.257Z,21.87
2019-06-20T15:13:40.747Z,21.49
2019-06-20T15:16:09.142Z,21.21
2019-06-20T15:18:37.577Z,21.07
2019-06-20T15:21:06.769Z,20.93
2019-06-20T15:23:35.162Z,20.88
2019-06-20T15:26:03.560Z,20.81
2019-06-20T15:28:32.874Z,20.77
2019-06-20T15:31:01.338Z,20.85
2019-06-20T15:33:29.734Z,20.99
2019-06-20T15:35:58.438Z,21.04
2019-06-20T15:38:26.832Z,21.11
2019-06-20T15:40:55.466Z,21.13
2019-06-20T15:43:24.016Z,21.18
2019-06-20T15:45:53.743Z,21.23
2019-06-20T15:48:22.310Z,21.24
2019-06-20T15:50:50.717Z,21.41
2019-06-20T15:53:19.114Z,21.53
2019-06-20T15:55:47.515Z,21.63
2019-06-20T15:58:15.905Z,21.66
2019-06-20T16:00:44.336Z,21.71
2019-06-20T16:03:14.631Z,21.78
2019-06-20T16:05:43.009Z,21.88
2019-06-20T16:08:11.407Z,21.91
2019-06-20T16:10:40.666Z,21.75
2019-06-20T16:13:09.139Z,21.78
2019-06-20T16:15:37.579Z,21.76
2019-06-20T16:20:33.375Z,22.00
2019-06-20T16:23:01.793Z,22.17
2019-06-20T16:25:30.174Z,22.27
2019-06-20T16:27:58.573Z,22.10
2019-06-20T16:30:27.311Z,21.96
2019-06-20T16:32:56.372Z,21.99
2019-06-20T16:35:25.342Z,21.98
2019-06-20T16:37:53.728Z,21.99
2019-06-20T16:40:40.797Z,22.03
2019-06-20T16:43:09.199Z,22.00
2019-06-20T16:48:05.106Z,21.66
2019-06-20T16:50:33.486Z,21.62
2019-06-20T16:53:01.902Z,21.61
2019-06-20T16:55:30.292Z,21.56
2019-06-20T16:57:58.720Z,21.56
2019-06-20T17:00:27.248Z,21.49
2019-06-20T17:02:56.009Z,21.51
2019-06-20T17:05:24.515Z,21.53
2019-06-20T17:07:52.887Z,21.54
2019-06-20T17:10:23.125Z,21.46
2019-06-20T17:12:51.523Z,21.46
2019-06-20T17:15:20.593Z,21.45
2019-06-20T17:17:49.030Z,21.40
2019-06-20T17:20:17.944Z,21.39
2019-06-20T17:22:46.351Z,21.41
2019-06-20T17:25:15.179Z,21.41
2019-06-20T17:27:43.683Z,21.37
2019-06-20T17:30:14.318Z,21.41
2019-06-20T17:32:42.710Z,21.40
2019-06-20T17:35:12.146Z,21.37
2019-06-20T17:37:40.561Z,21.39
2019-06-20T17:40:10.453Z,21.41
2019-06-20T17:42:39.343Z,21.39
2019-06-20T17:45:09.817Z,21.36
2019-06-20T17:47:38.207Z,21.30
2019-06-20T17:50:08.892Z,21.24
2019-06-20T17:52:37.278Z,21.20
2019-06-20T17:55:08.624Z,21.14
2019-06-20T17:57:37.318Z,21.13
2019-06-20T18:00:11.531Z,21.12
2019-06-20T18:02:39.996Z,21.11
2019-06-20T18:05:08.832Z,21.06
2019-06-20T18:07:37.316Z,21.06
2019-06-20T18:10:07.048Z,21.06
2019-06-20T18:12:35.445Z,21.07
2019-06-20T18:15:05.274Z,21.08
2019-06-20T18:17:33.677Z,21.10
2019-06-20T18:20:02.083Z,21.08
2019-06-20T18:22:30.492Z,21.02
2019-06-20T18:24:58.870Z,20.98
2019-06-20T18:27:27.350Z,20.94
2019-06-20T18:29:55.728Z,20.90
2019-06-20T18:32:24.128Z,20.89
2019-06-20T18:35:02.060Z,20.90
2019-06-20T18:37:31.322Z,20.85
2019-06-20T18:39:52.851Z,20.79
2019-06-20T18:42:21.259Z,20.75
2019-06-20T18:44:49.679Z,20.72
2019-06-20T18:47:18.067Z,20.73
2019-06-20T18:49:46.465Z,20.66
2019-06-20T18:52:14.866Z,20.60
2019-06-20T18:54:43.270Z,20.55
2019-06-20T18:57:11.661Z,20.51
2019-06-20T18:59:40.109Z,20.51
2019-06-20T19:02:08.546Z,20.48
2019-06-20T19:04:47.785Z,20.42
2019-06-20T19:07:07.078Z,20.38
2019-06-20T19:09:35.505Z,20.30
2019-06-20T19:12:04.768Z,20.18
2019-06-20T19:14:33.161Z,20.15
2019-06-20T19:17:01.558Z,20.12
2019-06-20T19:19:30.763Z,20.09
2019-06-20T19:21:59.183Z,20.02
2019-06-20T19:24:27.933Z,19.90
2019-06-20T19:26:56.328Z,19.71
2019-06-20T19:29:24.729Z,19.55
2019-06-20T19:31:53.130Z,19.43
2019-06-20T19:34:21.630Z,19.32
2019-06-20T19:36:50.003Z,19.25
2019-06-20T19:39:18.427Z,19.18
2019-06-20T19:41:46.836Z,19.12
2019-06-20T19:44:15.230Z,19.03
2019-06-20T19:46:43.776Z,18.96
2019-06-20T19:49:12.408Z,18.88
2019-06-20T19:51:40.802Z,18.80
2019-06-20T19:54:09.209Z,18.73
2019-06-20T19:56:37.605Z,18.68
2019-06-20T19:59:06.199Z,18.63
2019-06-20T20:01:35.597Z,18.58
2019-06-20T20:04:04.374Z,18.54
2019-06-20T20:06:32.838Z,18.47
2019-06-20T20:09:01.236Z,18.43
2019-06-20T20:11:29.718Z,18.46
2019-06-20T20:13:58.111Z,18.44
2019-06-20T20:16:26.499Z,18.53
2019-06-20T20:18:54.916Z,18.58
2019-06-20T20:21:23.375Z,18.56
2019-06-20T20:23:51.796Z,18.54
2019-06-20T20:26:20.200Z,18.53
2019-06-20T20:28:48.591Z,18.48
2019-06-20T20:31:16.993Z,18.45
2019-06-20T20:33:45.394Z,18.40
2019-06-20T20:36:24.368Z,18.35
2019-06-20T20:38:43.931Z,18.23
2019-06-20T20:41:12.330Z,18.06
2019-06-20T20:43:40.724Z,17.93
2019-06-20T20:46:09.158Z,17.82
2019-06-20T20:48:37.553Z,17.72
2019-06-20T20:51:05.946Z,17.65
2019-06-20T20:53:34.351Z,17.55
2019-06-20T20:56:02.751Z,17.45
2019-06-20T20:58:31.172Z,17.31
2019-06-20T21:01:02.610Z,17.20
2019-06-20T21:03:31.041Z,17.09
2019-06-20T21:05:59.431Z,16.97
2019-06-20T21:08:27.894Z,16.92
2019-06-20T21:10:56.291Z,16.88
2019-06-20T21:13:24.768Z,16.87
2019-06-20T21:15:53.476Z,16.90
2019-06-20T21:18:21.903Z,16.92
2019-06-20T21:20:50.294Z,16.87
2019-06-20T21:23:18.751Z,16.79
2019-06-20T21:25:47.172Z,16.75
2019-06-20T21:28:15.568Z,16.72
2019-06-20T21:30:43.992Z,16.74
2019-06-20T21:33:12.400Z,16.75
2019-06-20T21:35:41.363Z,16.81
2019-06-20T21:38:09.786Z,16.81
2019-06-20T21:40:38.445Z,16.77
2019-06-20T21:43:06.850Z,16.75
2019-06-20T21:45:36.033Z,16.69
2019-06-20T21:48:05.127Z,16.65
2019-06-20T21:50:33.539Z,16.60
2019-06-20T21:53:01.932Z,16.56
2019-06-20T21:55:30.355Z,16.56
2019-06-20T21:57:58.749Z,16.55
2019-06-20T22:00:31.848Z,16.61
2019-06-20T22:03:00.286Z,16.71
2019-06-20T22:05:28.661Z,16.86
2019-06-20T22:07:57.067Z,16.86
2019-06-20T22:10:25.815Z,16.85
2019-06-20T22:12:54.235Z,16.83
2019-06-20T22:15:22.615Z,16.76
2019-06-20T22:17:51.418Z,16.65
2019-06-20T22:20:20.352Z,16.58
2019-06-20T22:22:48.786Z,16.51
2019-06-20T22:25:17.726Z,16.50
2019-06-20T22:27:48.195Z,16.42
2019-06-20T22:30:17.649Z,16.46
2019-06-20T22:32:46.044Z,16.48
2019-06-20T22:35:14.967Z,16.50
2019-06-20T22:37:43.375Z,16.42
2019-06-20T22:40:12.295Z,16.35
2019-06-20T22:42:40.693Z,16.35
2019-06-20T22:45:10.494Z,16.55
2019-06-20T22:47:39.001Z,16.60
2019-06-20T22:50:08.542Z,16.59
2019-06-20T22:52:36.940Z,16.57
2019-06-20T22:55:06.872Z,16.40
2019-06-20T22:57:35.261Z,16.33
2019-06-20T23:00:06.311Z,16.29
2019-06-20T23:02:34.699Z,16.18
2019-06-20T23:05:03.311Z,16.11
2019-06-20T23:07:31.671Z,16.05
2019-06-20T23:10:09.916Z,16.02
2019-06-20T23:12:30.755Z,15.98
2019-06-20T23:14:59.146Z,15.98
2019-06-20T23:17:27.577Z,15.98
2019-06-20T23:19:55.994Z,16.01
2019-06-20T23:22:24.383Z,16.02
2019-06-20T23:24:52.800Z,16.08
2019-06-20T23:27:21.337Z,16.08
2019-06-20T23:29:49.726Z,16.11
2019-06-20T23:32:18.194Z,16.13
2019-06-20T23:34:46.599Z,16.14
2019-06-20T23:37:15.562Z,16.06
2019-06-20T23:39:43.969Z,15.99
2019-06-20T23:42:12.364Z,15.97
2019-06-20T23:44:40.753Z,15.91
2019-06-20T23:47:09.160Z,15.90
2019-06-20T23:49:37.552Z,15.86
2019-06-20T23:52:08.083Z,15.85
2019-06-20T23:54:36.434Z,15.84
2019-06-20T23:57:04.890Z,15.86
2019-06-20T23:59:33.331Z,15.88
